Time;durP1;ratioP1;P1;durP2;ratioP2;P2;SDS_P1;SDS_P2;PMS_P1;PMS_P2;Temp;Humidity;BMP_temperature;BMP_pressure;BME280_temperature;BME280_humidity;BME280_pressure;Samples;Min_cycle;Max_cycle;Signal;HPM_P1;HPM_P2
2022/04/28 00:00:41;;;;;;;1.50;1.20;;;9.60;93.90;;;;;;5075845;28;20468;-78
2022/04/28 00:03:08;;;;;;;1.50;1.20;;;9.60;93.30;;;;;;5077208;28;20615;-78
2022/04/28 00:05:35;;;;;;;1.50;1.10;;;9.50;93.30;;;;;;5075453;28;20481;-79
2022/04/28 00:08:03;;;;;;;1.47;1.10;;;9.50;94.00;;;;;;5072532;28;21033;-79
2022/04/28 00:10:31;;;;;;;1.47;1.10;;;9.50;94.10;;;;;;5073253;28;20492;-79
2022/04/28 00:13:00;;;;;;;1.50;1.20;;;9.50;94.10;;;;;;5077208;28;20475;-79
2022/04/28 00:15:27;;;;;;;1.50;1.10;;;9.40;93.70;;;;;;5078409;28;20458;-79
2022/04/28 00:17:54;;;;;;;1.50;1.27;;;9.40;93.70;;;;;;5075680;28;20468;-79
2022/04/28 00:20:21;;;;;;;1.50;1.20;;;9.40;94.00;;;;;;5069675;28;20457;-79
2022/04/28 00:22:48;;;;;;;1.50;1.20;;;9.40;94.30;;;;;;5072318;28;20463;-79
2022/04/28 00:25:15;;;;;;;1.50;1.10;;;9.40;94.00;;;;;;5076913;28;20481;-79
2022/04/28 00:27:43;;;;;;;1.50;1.20;;;9.30;94.80;;;;;;5076613;28;20943;-79
2022/04/28 00:30:11;;;;;;;1.50;1.10;;;9.30;94.10;;;;;;5077732;28;20488;-78
2022/04/28 00:32:37;;;;;;;1.50;1.10;;;9.20;94.60;;;;;;5077588;28;20453;-79
2022/04/28 00:35:05;;;;;;;1.50;1.10;;;9.20;95.00;;;;;;5077067;28;20475;-78
2022/04/28 00:37:32;;;;;;;1.50;1.20;;;9.20;95.10;;;;;;5075910;28;20853;-79
2022/04/28 00:39:59;;;;;;;1.50;1.40;;;9.10;95.40;;;;;;5076777;28;20483;-79
2022/04/28 00:42:26;;;;;;;1.50;1.20;;;9.10;95.30;;;;;;5076918;28;21031;-79
2022/04/28 00:44:54;;;;;;;1.50;1.20;;;9.10;95.10;;;;;;5077853;28;20462;-79
2022/04/28 00:47:22;;;;;;;1.50;1.30;;;9.10;95.10;;;;;;5077564;28;20541;-79
2022/04/28 00:52:34;;;;;;;1.50;1.20;;;9.10;95.00;;;;;;5083309;28;20464;-79
2022/04/28 00:55:01;;;;;;;1.47;1.20;;;9.00;95.40;;;;;;5085875;28;20476;-79
2022/04/28 00:57:33;;;;;;;1.50;1.20;;;9.00;95.50;;;;;;5072823;28;20462;-80
2022/04/28 01:00:02;;;;;;;1.50;1.20;;;8.90;95.30;;;;;;5076920;28;20559;-79
2022/04/28 01:02:29;;;;;;;1.47;1.17;;;8.90;95.30;;;;;;5076051;28;20473;-79
2022/04/28 01:04:55;;;;;;;1.50;1.20;;;8.90;95.30;;;;;;5076810;28;20529;-79
2022/04/28 01:07:22;;;;;;;1.50;1.20;;;8.90;96.20;;;;;;5076339;28;20485;-79
2022/04/28 01:09:49;;;;;;;1.50;1.20;;;8.80;95.70;;;;;;5076435;28;20493;-79
2022/04/28 01:12:17;;;;;;;1.50;1.27;;;8.80;95.80;;;;;;5075357;28;20479;-79
2022/04/28 01:14:45;;;;;;;1.50;1.20;;;8.80;96.40;;;;;;5077487;28;20453;-79
2022/04/28 01:17:14;;;;;;;1.50;1.20;;;8.80;96.30;;;;;;5075528;28;20835;-79
2022/04/28 01:19:41;;;;;;;1.50;1.30;;;8.80;96.20;;;;;;5070086;28;20494;-79
2022/04/28 01:22:10;;;;;;;1.50;1.17;;;8.80;96.80;;;;;;5072543;28;21041;-79
2022/04/28 01:24:37;;;;;;;1.50;1.20;;;8.70;96.70;;;;;;5077711;28;20465;-79
2022/04/28 01:27:05;;;;;;;1.50;1.20;;;8.70;96.60;;;;;;5069331;28;20477;-79
2022/04/28 01:29:33;;;;;;;1.47;1.10;;;8.70;96.60;;;;;;5075751;28;20492;-79
2022/04/28 01:32:00;;;;;;;1.50;1.10;;;8.70;96.90;;;;;;5070243;28;20504;-79
2022/04/28 01:34:27;;;;;;;1.50;1.10;;;8.60;96.90;;;;;;5074670;28;20469;-78
2022/04/28 01:37:10;;;;;;;1.47;1.10;;;8.60;97.20;;;;;;5073488;28;20552;-78
2022/04/28 01:39:39;;;;;;;1.50;1.20;;;8.60;97.10;;;;;;5077719;28;20508;-79
2022/04/28 01:42:06;;;;;;;2.40;2.20;;;8.60;97.40;;;;;;5073376;28;20458;-79
2022/04/28 01:44:33;;;;;;;1.50;1.30;;;8.50;96.90;;;;;;5071286;28;20466;-78
2022/04/28 01:47:00;;;;;;;1.50;1.20;;;8.50;97.10;;;;;;5065433;28;20481;-79
2022/04/28 01:49:27;;;;;;;1.50;1.20;;;8.50;97.40;;;;;;5068819;28;20511;-79
2022/04/28 01:57:23;;;;;;;1.50;1.20;;;8.40;97.30;;;;;;5062235;28;20958;-79
2022/04/28 01:59:51;;;;;;;1.50;1.20;;;8.30;97.60;;;;;;5075995;28;20602;-79
2022/04/28 02:02:17;;;;;;;1.50;1.20;;;8.30;97.50;;;;;;5076546;28;20453;-80
2022/04/28 02:04:45;;;;;;;1.50;1.20;;;8.30;98.00;;;;;;5079143;28;20461;-79
2022/04/28 02:07:13;;;;;;;1.47;1.20;;;8.30;98.10;;;;;;5069121;28;21209;-77
2022/04/28 02:09:41;;;;;;;1.50;1.20;;;8.30;98.20;;;;;;5069738;28;20477;-77
2022/04/28 02:12:09;;;;;;;1.50;1.30;;;8.30;98.20;;;;;;5075576;28;20465;-79
2022/04/28 02:14:36;;;;;;;1.50;1.30;;;8.30;98.00;;;;;;5078305;28;20461;-79
2022/04/28 02:17:05;;;;;;;1.50;1.23;;;8.20;97.90;;;;;;5077628;28;20923;-79
2022/04/28 02:19:32;;;;;;;1.50;1.20;;;8.20;97.60;;;;;;5068272;28;20748;-78
2022/04/28 02:21:58;;;;;;;1.50;1.20;;;8.20;98.00;;;;;;5069686;28;20469;-80
2022/04/28 02:24:25;;;;;;;1.50;1.10;;;8.20;98.20;;;;;;5078750;28;20466;-78
2022/04/28 02:26:54;;;;;;;1.50;1.30;;;8.10;98.20;;;;;;5076115;28;20480;-79
2022/04/28 02:29:20;;;;;;;1.50;1.20;;;8.10;98.10;;;;;;5097646;22;20869;-77
2022/04/28 02:31:47;;;;;;;1.50;1.30;;;8.10;98.10;;;;;;5071262;28;20457;-77
2022/04/28 02:34:14;;;;;;;1.50;1.30;;;8.10;98.20;;;;;;5072181;28;20462;-77
2022/04/28 02:36:41;;;;;;;1.50;1.30;;;8.00;98.20;;;;;;5072649;28;20450;-78
2022/04/28 02:39:09;;;;;;;1.50;1.20;;;8.00;98.10;;;;;;5072243;28;20480;-78
2022/04/28 02:41:36;;;;;;;1.50;1.23;;;8.00;98.20;;;;;;5067139;28;20483;-77
2022/04/28 02:44:05;;;;;;;1.50;1.20;;;8.00;98.20;;;;;;5067120;28;20457;-76
2022/04/28 02:46:31;;;;;;;1.50;1.20;;;8.00;98.20;;;;;;5070894;28;20497;-77
2022/04/28 02:48:58;;;;;;;1.50;1.20;;;8.00;98.20;;;;;;5068956;28;20526;-76
2022/04/28 02:51:25;;;;;;;1.50;1.20;;;7.90;98.20;;;;;;5057768;28;20976;-76
2022/04/28 02:53:52;;;;;;;1.50;1.20;;;7.90;98.20;;;;;;5072258;28;20465;-75
2022/04/28 02:56:19;;;;;;;1.50;1.30;;;7.90;98.20;;;;;;5069250;28;20461;-76
2022/04/28 02:58:46;;;;;;;1.50;1.30;;;7.90;98.20;;;;;;5072466;28;20844;-75
2022/04/28 03:01:14;;;;;;;1.50;1.20;;;7.80;98.20;;;;;;5071321;28;20660;-78
2022/04/28 03:03:40;;;;;;;1.50;1.20;;;7.80;98.20;;;;;;5072808;28;20464;-78
2022/04/28 03:11:38;;;;;;;1.50;1.30;;;7.70;98.20;;;;;;5054427;28;20461;-78
2022/04/28 03:14:06;;;;;;;1.50;1.20;;;7.70;98.20;;;;;;5072917;28;20515;-78
2022/04/28 03:16:35;;;;;;;1.50;1.20;;;7.70;98.20;;;;;;5071959;28;20829;-78
2022/04/28 03:19:02;;;;;;;1.50;1.30;;;7.70;98.20;;;;;;5070866;28;20862;-77
2022/04/28 03:21:28;;;;;;;1.50;1.20;;;7.70;98.20;;;;;;5062211;28;20464;-78
2022/04/28 03:23:55;;;;;;;1.50;1.20;;;7.70;98.20;;;;;;5074802;28;20473;-78
2022/04/28 03:26:22;;;;;;;1.50;1.20;;;7.60;98.20;;;;;;5071493;28;20478;-78
2022/04/28 03:28:49;;;;;;;1.50;1.20;;;7.60;98.20;;;;;;5063951;28;20481;-77
2022/04/28 03:31:16;;;;;;;1.50;1.20;;;7.60;98.20;;;;;;5069038;28;20463;-77
2022/04/28 03:33:44;;;;;;;1.50;1.20;;;7.60;98.20;;;;;;5071940;28;20457;-76
2022/04/28 03:38:52;;;;;;;1.50;1.30;;;7.50;98.20;;;;;;5072408;28;20699;-77
2022/04/28 03:41:18;;;;;;;1.50;1.20;;;7.50;98.20;;;;;;5070209;28;20760;-77
2022/04/28 03:43:45;;;;;;;1.50;1.20;;;7.50;98.20;;;;;;5072750;28;20465;-78
2022/04/28 03:46:12;;;;;;;1.50;1.20;;;7.40;98.20;;;;;;5069335;28;20493;-76
2022/04/28 03:48:39;;;;;;;1.50;1.20;;;7.40;98.20;;;;;;5071758;28;20465;-78
2022/04/28 03:51:07;;;;;;;1.50;1.30;;;7.40;98.20;;;;;;5062931;28;20465;-75
2022/04/28 03:53:33;;;;;;;1.50;1.30;;;7.40;98.20;;;;;;5070254;28;20458;-77
2022/04/28 03:56:00;;;;;;;1.50;1.40;;;7.40;98.20;;;;;;5066781;28;20468;-78
2022/04/28 03:58:27;;;;;;;1.50;1.30;;;7.30;98.20;;;;;;5071007;28;20472;-78
2022/04/28 04:00:54;;;;;;;1.50;1.20;;;7.30;98.20;;;;;;5070287;28;20497;-80
2022/04/28 04:03:21;;;;;;;1.50;1.20;;;7.30;98.20;;;;;;5071731;28;20784;-76
2022/04/28 04:05:48;;;;;;;1.50;1.20;;;7.30;98.20;;;;;;5066604;28;20977;-75
2022/04/28 04:08:16;;;;;;;1.50;1.30;;;7.30;98.20;;;;;;5071087;28;20487;-78
2022/04/28 04:10:43;;;;;;;1.50;1.20;;;7.30;98.20;;;;;;5072594;28;20496;-78
2022/04/28 04:13:10;;;;;;;1.50;1.30;;;7.30;98.20;;;;;;5070089;28;20465;-78
2022/04/28 04:15:37;;;;;;;1.50;1.20;;;7.20;98.20;;;;;;5073324;28;20472;-78
2022/04/28 04:18:04;;;;;;;1.50;1.30;;;7.20;98.20;;;;;;5068434;28;20803;-78
2022/04/28 04:20:31;;;;;;;1.50;1.30;;;7.20;98.20;;;;;;5060653;28;20489;-79
2022/04/28 04:22:59;;;;;;;1.50;1.20;;;7.20;98.20;;;;;;5075482;28;20458;-77
2022/04/28 04:25:27;;;;;;;1.50;1.30;;;7.20;98.20;;;;;;5075898;28;20461;-78
2022/04/28 04:27:53;;;;;;;1.50;1.30;;;7.20;98.20;;;;;;5072827;28;20481;-78
2022/04/28 04:33:05;;;;;;;1.50;1.20;;;7.20;98.20;;;;;;5070821;28;20486;-78
2022/04/28 04:35:32;;;;;;;1.50;1.30;;;7.20;98.20;;;;;;5074680;28;20526;-79
2022/04/28 04:37:59;;;;;;;1.50;1.20;;;7.20;98.20;;;;;;5066096;28;20471;-79
2022/04/28 04:40:27;;;;;;;1.50;1.30;;;7.20;98.20;;;;;;5072382;28;20575;-78
2022/04/28 04:42:54;;;;;;;1.50;1.30;;;7.20;98.20;;;;;;5070942;28;20462;-78
2022/04/28 04:45:23;;;;;;;1.50;1.20;;;7.20;98.20;;;;;;5071198;28;20470;-78
2022/04/28 04:47:50;;;;;;;1.50;1.40;;;7.20;98.20;;;;;;5071590;28;20542;-79
2022/04/28 04:50:16;;;;;;;1.50;1.30;;;7.30;98.20;;;;;;5062032;28;20487;-78
2022/04/28 04:52:43;;;;;;;1.50;1.30;;;7.30;98.20;;;;;;5067757;28;20462;-77
2022/04/28 04:55:10;;;;;;;1.50;1.20;;;7.30;98.20;;;;;;5072862;28;20549;-79
2022/04/28 04:57:39;;;;;;;1.50;1.20;;;7.30;98.20;;;;;;5070523;28;20465;-77
2022/04/28 05:00:08;;;;;;;1.50;1.20;;;7.40;98.20;;;;;;5070545;28;20477;-78
2022/04/28 05:02:35;;;;;;;1.50;1.20;;;7.40;98.20;;;;;;5065223;28;20908;-77
2022/04/28 05:05:02;;;;;;;1.50;1.30;;;7.50;98.20;;;;;;5071382;28;21588;-77
2022/04/28 05:07:30;;;;;;;1.50;1.20;;;7.50;98.20;;;;;;5070932;28;20995;-78
2022/04/28 05:09:57;;;;;;;1.50;1.30;;;7.50;98.20;;;;;;5074277;28;20539;-78
2022/04/28 05:12:24;;;;;;;1.50;1.30;;;7.60;98.20;;;;;;5072736;28;20453;-78
2022/04/28 05:14:52;;;;;;;1.50;1.30;;;7.70;98.20;;;;;;5077524;28;20468;-76
2022/04/28 05:17:19;;;;;;;1.50;1.30;;;7.70;98.20;;;;;;5075751;28;20464;-78
2022/04/28 05:19:45;;;;;;;1.50;1.30;;;7.80;98.20;;;;;;5064334;28;20488;-77
2022/04/28 05:22:14;;;;;;;1.50;1.27;;;7.90;98.20;;;;;;5065451;28;20472;-77
2022/04/28 05:24:40;;;;;;;1.50;1.20;;;8.00;98.20;;;;;;5077721;28;20457;-78
2022/04/28 05:27:07;;;;;;;1.50;1.20;;;8.10;98.20;;;;;;5076585;28;20492;-78
2022/04/28 05:29:34;;;;;;;1.50;1.20;;;8.20;98.20;;;;;;5076886;28;20519;-77
2022/04/28 05:32:02;;;;;;;1.50;1.20;;;8.40;98.20;;;;;;5075081;28;20462;-77
2022/04/28 05:34:29;;;;;;;1.50;1.20;;;8.50;98.20;;;;;;5076761;28;20465;-78
2022/04/28 05:36:56;;;;;;;1.50;1.17;;;8.70;98.20;;;;;;5071791;28;20468;-77
2022/04/28 05:39:22;;;;;;;1.50;1.10;;;8.90;98.20;;;;;;5074663;28;20481;-77
2022/04/28 05:41:49;;;;;;;1.50;1.30;;;9.10;98.20;;;;;;5062210;28;20461;-77
2022/04/28 05:47:02;;;;;;;1.50;1.20;;;9.60;98.20;;;;;;5069215;28;20475;-78
2022/04/28 05:49:29;;;;;;;1.50;1.20;;;9.90;98.20;;;;;;5066485;28;20496;-78
2022/04/28 05:51:55;;;;;;;1.50;1.10;;;10.00;98.10;;;;;;5063177;28;20993;-78
2022/04/28 05:54:22;;;;;;;1.50;1.10;;;10.20;98.20;;;;;;5071471;28;20468;-77
2022/04/28 05:56:49;;;;;;;1.50;1.10;;;10.40;97.90;;;;;;5064389;28;20460;-77
2022/04/28 05:59:17;;;;;;;1.50;1.10;;;10.60;97.20;;;;;;5067097;28;20478;-77
2022/04/28 06:01:47;;;;;;;1.50;1.10;;;10.70;95.80;;;;;;5070663;28;20465;-78
2022/04/28 06:04:18;;;;;;;1.43;1.10;;;10.70;95.10;;;;;;5074555;28;20496;-78
2022/04/28 06:06:45;;;;;;;1.50;1.10;;;10.80;95.80;;;;;;5068157;28;21014;-76
2022/04/28 06:09:11;;;;;;;1.50;1.10;;;11.00;95.70;;;;;;5069437;28;20485;-77
2022/04/28 06:11:38;;;;;;;1.50;1.10;;;11.30;95.60;;;;;;5065497;28;20488;-76
2022/04/28 06:14:05;;;;;;;1.50;1.00;;;11.60;94.50;;;;;;5058060;28;20477;-77
2022/04/28 06:16:32;;;;;;;1.47;1.07;;;11.80;93.70;;;;;;5059539;28;20974;-76
2022/04/28 06:18:59;;;;;;;1.50;1.10;;;12.00;92.80;;;;;;5060756;28;20486;-76
2022/04/28 06:21:27;;;;;;;1.50;1.10;;;12.20;92.10;;;;;;5061656;28;20469;-76
2022/04/28 06:23:54;;;;;;;1.50;1.00;;;12.20;92.00;;;;;;5071280;28;20464;-78
2022/04/28 06:26:21;;;;;;;1.50;1.00;;;12.30;91.60;;;;;;5062428;28;20461;-77
2022/04/28 06:28:47;;;;;;;1.50;1.10;;;12.50;90.80;;;;;;5070624;28;20493;-78
2022/04/28 06:31:14;;;;;;;1.50;1.00;;;12.60;90.50;;;;;;5063231;28;20466;-77
2022/04/28 06:33:41;;;;;;;1.50;1.00;;;12.80;90.50;;;;;;5058267;28;20465;-76
2022/04/28 06:36:08;;;;;;;1.50;1.10;;;13.10;90.00;;;;;;5070860;28;20466;-80
2022/04/28 06:38:36;;;;;;;1.47;0.90;;;13.30;88.10;;;;;;5072700;28;20457;-78
2022/04/28 06:41:03;;;;;;;1.50;0.90;;;13.50;87.90;;;;;;5068707;28;20576;-78
2022/04/28 06:43:30;;;;;;;1.50;1.00;;;13.60;87.70;;;;;;5070380;28;20565;-77
2022/04/28 06:48:40;;;;;;;1.43;1.00;;;13.80;87.10;;;;;;5060752;28;20621;-79
2022/04/28 06:51:07;;;;;;;1.50;1.00;;;13.80;86.70;;;;;;5061982;28;20480;-79
2022/04/28 06:53:33;;;;;;;1.47;0.97;;;14.10;86.90;;;;;;5070130;28;20465;-79
2022/04/28 06:56:01;;;;;;;1.43;1.00;;;14.10;86.20;;;;;;5069952;28;20476;-77
2022/04/28 06:58:28;;;;;;;1.50;0.90;;;14.20;86.10;;;;;;5068592;28;20464;-78
2022/04/28 07:00:55;;;;;;;1.43;0.90;;;14.40;84.70;;;;;;5068895;28;20536;-78
2022/04/28 07:03:22;;;;;;;1.47;1.00;;;14.50;84.10;;;;;;5069658;28;20548;-77
2022/04/28 07:05:48;;;;;;;1.50;1.00;;;14.70;84.30;;;;;;5069484;28;20472;-78
2022/04/28 07:08:15;;;;;;;1.50;1.00;;;14.80;84.20;;;;;;5066961;28;20497;-78
2022/04/28 07:10:42;;;;;;;1.43;1.00;;;15.00;83.40;;;;;;5068332;28;20999;-78
2022/04/28 07:13:10;;;;;;;1.50;1.00;;;15.20;83.40;;;;;;5066167;28;20815;-77
2022/04/28 07:15:38;;;;;;;1.50;1.00;;;15.50;83.60;;;;;;5069871;28;20468;-77
2022/04/28 07:18:06;;;;;;;1.43;1.00;;;15.70;83.50;;;;;;5067227;28;20515;-77
2022/04/28 07:20:33;;;;;;;1.40;0.90;;;15.90;82.40;;;;;;5061607;28;20513;-78
2022/04/28 07:23:00;;;;;;;1.50;0.90;;;16.10;82.40;;;;;;5065838;28;20473;-78
2022/04/28 07:25:27;;;;;;;1.47;0.90;;;16.20;80.70;;;;;;5067547;28;20553;-78
2022/04/28 07:27:53;;;;;;;1.47;0.90;;;16.20;81.40;;;;;;5066039;28;20481;-78
2022/04/28 07:30:22;;;;;;;1.43;0.90;;;16.20;81.30;;;;;;5064486;28;20492;-78
2022/04/28 07:32:50;;;;;;;1.50;1.00;;;16.40;81.60;;;;;;5064212;28;20461;-78
2022/04/28 07:35:17;;;;;;;1.50;0.90;;;16.50;81.10;;;;;;5067455;28;20457;-78
2022/04/28 07:37:44;;;;;;;1.50;1.00;;;16.60;81.20;;;;;;5071210;28;20460;-78
2022/04/28 07:40:11;;;;;;;1.47;0.90;;;16.70;80.90;;;;;;5073627;28;20472;-78
2022/04/28 07:42:38;;;;;;;1.50;0.90;;;17.00;81.40;;;;;;5064409;28;20489;-78
2022/04/28 07:45:06;;;;;;;1.47;0.90;;;17.20;80.30;;;;;;5059339;28;20780;-79
2022/04/28 07:47:34;;;;;;;1.43;0.90;;;17.30;78.50;;;;;;5065730;28;20485;-78
2022/04/28 07:50:01;;;;;;;1.50;1.00;;;17.50;78.20;;;;;;5058141;28;21126;-79
2022/04/28 07:52:27;;;;;;;1.47;0.90;;;17.60;77.50;;;;;;5059473;28;20508;-77
2022/04/28 07:54:54;;;;;;;1.50;0.90;;;17.40;78.70;;;;;;5063205;28;20811;-78
2022/04/28 07:57:22;;;;;;;1.40;0.90;;;17.60;78.40;;;;;;5060663;28;20461;-78
2022/04/28 07:59:49;;;;;;;1.47;0.90;;;17.50;78.70;;;;;;5069748;28;20481;-79
2022/04/28 08:02:16;;;;;;;1.43;0.90;;;17.50;78.90;;;;;;5071976;28;20466;-78
2022/04/28 08:04:44;;;;;;;1.50;1.00;;;17.60;78.30;;;;;;5069365;28;20477;-76
2022/04/28 08:07:11;;;;;;;1.47;0.90;;;17.80;77.80;;;;;;5063947;28;20464;-78
2022/04/28 08:09:37;;;;;;;1.50;1.00;;;18.00;77.70;;;;;;5065837;28;20485;-77
2022/04/28 08:12:05;;;;;;;1.50;0.90;;;18.10;77.00;;;;;;5064458;28;20481;-78
2022/04/28 08:14:32;;;;;;;1.50;0.90;;;18.30;77.00;;;;;;5069023;28;20473;-78
2022/04/28 08:17:00;;;;;;;1.47;0.90;;;18.40;76.70;;;;;;5066827;28;20465;-78
2022/04/28 08:19:26;;;;;;;1.50;0.90;;;18.50;76.30;;;;;;5062925;28;20531;-77
2022/04/28 08:21:55;;;;;;;1.50;0.90;;;18.60;76.60;;;;;;5056941;28;20462;-77
2022/04/28 08:24:21;;;;;;;1.50;0.90;;;18.80;76.40;;;;;;5068181;28;20461;-77
2022/04/28 08:26:48;;;;;;;1.50;0.90;;;19.00;76.90;;;;;;5067331;28;20552;-78
2022/04/28 08:29:15;;;;;;;1.50;0.90;;;19.10;75.40;;;;;;5091010;22;20484;-78
2022/04/28 08:31:44;;;;;;;1.50;0.90;;;19.20;74.60;;;;;;5079903;28;20446;-79
2022/04/28 08:34:11;;;;;;;1.47;0.90;;;19.30;74.60;;;;;;5082023;28;20840;-79
2022/04/28 08:36:38;;;;;;;1.50;0.90;;;19.30;74.30;;;;;;5071583;28;20460;-79
2022/04/28 08:39:07;;;;;;;1.50;0.90;;;19.30;75.70;;;;;;5076066;28;20532;-79
2022/04/28 08:41:35;;;;;;;1.47;0.90;;;19.20;75.10;;;;;;5076933;28;20534;-79
2022/04/28 08:44:03;;;;;;;1.40;0.90;;;19.30;74.70;;;;;;5080828;28;20468;-79
2022/04/28 08:49:16;;;;;;;4.23;2.90;;;19.60;73.80;;;;;;5077486;28;20503;-79
2022/04/28 08:51:44;;;;;;;1.43;0.90;;;19.70;73.90;;;;;;5075355;28;20463;-78
2022/04/28 08:54:14;;;;;;;1.43;0.90;;;19.90;73.60;;;;;;5079737;28;20514;-79
2022/04/28 08:56:41;;;;;;;1.47;0.90;;;20.10;73.10;;;;;;5080976;28;20462;-78
2022/04/28 08:59:09;;;;;;;1.47;0.90;;;20.00;73.30;;;;;;5076506;28;20975;-80
2022/04/28 09:01:36;;;;;;;1.47;0.90;;;20.10;73.10;;;;;;5078812;28;20465;-78
2022/04/28 09:04:05;;;;;;;1.50;0.90;;;20.40;71.90;;;;;;5076107;28;20487;-77
2022/04/28 09:06:34;;;;;;;1.47;0.90;;;20.70;71.80;;;;;;5075378;28;20504;-78
2022/04/28 09:09:04;;;;;;;1.43;0.90;;;21.00;71.90;;;;;;5074522;28;20465;-80
2022/04/28 09:11:35;;;;;;;1.47;0.90;;;21.20;71.70;;;;;;5068628;28;21034;-79
2022/04/28 09:14:15;;;;;;;1.43;0.90;;;21.10;69.30;;;;;;5075197;28;20468;-79
2022/04/28 09:16:44;;;;;;;1.47;0.90;;;21.20;68.80;;;;;;5079228;28;20555;-79
2022/04/28 09:19:13;;;;;;;1.47;0.83;;;21.20;68.20;;;;;;5072049;28;20831;-78
2022/04/28 09:21:40;;;;;;;1.43;0.90;;;21.10;68.10;;;;;;5069606;28;20825;-78
2022/04/28 09:24:42;;;;;;;1.50;0.97;;;21.00;69.60;;;;;;5075567;28;20542;-78
2022/04/28 09:27:12;;;;;;;1.43;0.80;;;20.90;67.80;;;;;;5070735;28;20464;-78
2022/04/28 09:29:40;;;;;;;1.50;0.90;;;21.00;68.00;;;;;;5069601;28;20894;-78
2022/04/28 09:32:10;;;;;;;1.50;0.90;;;21.10;69.00;;;;;;5073216;28;20860;-78
2022/04/28 09:34:46;;;;;;;1.47;0.90;;;21.30;67.60;;;;;;5075151;28;20458;-76
2022/04/28 09:37:30;;;;;;;1.50;0.90;;;21.40;66.80;;;;;;5076415;28;20465;-79
2022/04/28 09:42:44;;;;;;;1.50;1.00;;;21.50;66.10;;;;;;5067735;28;20590;-78
2022/04/28 09:45:13;;;;;;;1.77;1.20;;;21.60;65.50;;;;;;5073322;28;20468;-78
2022/04/28 09:47:39;;;;;;;1.60;1.20;;;21.60;66.20;;;;;;5072649;28;20464;-79
2022/04/28 09:50:14;;;;;;;1.50;1.00;;;21.70;67.30;;;;;;5064106;28;20480;-79
2022/04/28 09:52:46;;;;;;;1.50;1.00;;;21.80;66.20;;;;;;5063168;28;20577;-79
2022/04/28 09:55:15;;;;;;;1.50;0.90;;;22.00;66.90;;;;;;5070998;28;21122;-78
2022/04/28 09:57:44;;;;;;;1.47;0.80;;;22.20;65.70;;;;;;5069156;28;20457;-78
2022/04/28 10:00:12;;;;;;;1.50;0.90;;;22.40;65.50;;;;;;5074025;28;20763;-79
2022/04/28 10:02:41;;;;;;;1.47;0.90;;;22.40;64.90;;;;;;5072033;28;20461;-79
2022/04/28 10:05:08;;;;;;;1.50;0.83;;;22.40;65.10;;;;;;5076638;28;20477;-82
2022/04/28 10:07:36;;;;;;;1.47;0.80;;;22.50;65.20;;;;;;5076459;28;20461;-79
2022/04/28 10:10:04;;;;;;;1.50;0.90;;;22.60;65.10;;;;;;5074398;28;20499;-84
2022/04/28 10:12:31;;;;;;;1.50;0.90;;;22.70;65.50;;;;;;5068584;28;20476;-81
2022/04/28 10:15:01;;;;;;;1.40;0.90;;;22.70;63.40;;;;;;5070945;28;20485;-81
2022/04/28 10:17:33;;;;;;;1.40;0.90;;;22.70;62.90;;;;;;5072010;28;20462;-79
2022/04/28 10:20:03;;;;;;;1.50;0.90;;;22.70;62.90;;;;;;5066471;28;20499;-83
2022/04/28 10:22:33;;;;;;;1.40;0.90;;;22.70;63.90;;;;;;5075024;28;20469;-82
2022/04/28 10:34:13;;;;;;;1.50;0.90;;;23.20;61.30;;;;;;5077427;28;20453;-83
2022/04/28 10:36:54;;;;;;;1.50;0.90;;;23.30;62.50;;;;;;5077505;28;20545;-83
2022/04/28 10:39:39;;;;;;;1.47;0.87;;;23.40;62.30;;;;;;5071007;28;20497;-81
2022/04/28 10:42:20;;;;;;;1.50;1.03;;;23.00;60.90;;;;;;5071993;28;20600;-81
2022/04/28 10:44:55;;;;;;;1.70;1.10;;;23.20;61.70;;;;;;5076876;28;20544;-80
2022/04/28 10:47:35;;;;;;;1.47;0.90;;;23.10;62.20;;;;;;5075195;28;20465;-80
2022/04/28 10:50:04;;;;;;;1.40;0.90;;;23.20;61.60;;;;;;5071606;28;20469;-83
2022/04/28 10:52:35;;;;;;;1.60;1.30;;;23.20;61.00;;;;;;5074699;28;20476;-79
2022/04/28 10:55:03;;;;;;;1.47;0.90;;;23.30;62.40;;;;;;5067286;28;20467;-82
2022/04/28 10:57:33;;;;;;;1.47;0.87;;;23.20;60.60;;;;;;5068556;28;20464;-80
2022/04/28 11:00:02;;;;;;;1.40;0.80;;;23.40;62.40;;;;;;5075757;28;20521;-81
2022/04/28 11:02:44;;;;;;;1.43;0.80;;;23.40;64.10;;;;;;5074262;28;20464;-79
2022/04/28 11:05:33;;;;;;;1.40;0.90;;;23.40;60.60;;;;;;5074308;28;20461;-84
2022/04/28 11:08:01;;;;;;;1.43;0.90;;;23.60;62.80;;;;;;5074056;28;20457;-81
2022/04/28 11:10:28;;;;;;;1.43;0.90;;;23.70;62.80;;;;;;5075481;28;20523;-82
2022/04/28 11:12:56;;;;;;;1.43;0.90;;;23.70;60.50;;;;;;5073318;28;20500;-80
2022/04/28 11:15:27;;;;;;;1.90;1.30;;;23.60;61.00;;;;;;5055151;28;20457;-80
2022/04/28 11:17:55;;;;;;;1.50;0.80;;;23.50;61.30;;;;;;5049078;28;20508;-80
2022/04/28 11:20:22;;;;;;;1.43;0.90;;;23.70;61.70;;;;;;5048735;28;20490;-82
2022/04/28 11:22:52;;;;;;;1.43;0.90;;;23.90;61.30;;;;;;5051158;28;20450;-80
2022/04/28 11:25:20;;;;;;;1.43;0.90;;;23.90;59.40;;;;;;5049540;28;20462;-82
2022/04/28 11:27:50;;;;;;;1.40;0.80;;;23.90;61.40;;;;;;5053182;28;20469;-80
2022/04/28 11:30:19;;;;;;;1.40;0.90;;;24.00;61.10;;;;;;5046943;28;20962;-79
2022/04/28 11:32:49;;;;;;;1.43;0.90;;;24.00;61.10;;;;;;5054494;28;20466;-81
2022/04/28 11:35:18;;;;;;;1.47;0.80;;;23.90;59.60;;;;;;5055720;28;20563;-81
2022/04/28 11:37:45;;;;;;;1.43;0.90;;;23.90;61.80;;;;;;5053068;28;20739;-78
2022/04/28 11:40:22;;;;;;;1.43;0.90;;;24.10;61.80;;;;;;5051271;28;20498;-83
2022/04/28 11:43:26;;;;;;;1.50;0.90;;;24.10;59.70;;;;;;5052611;28;20523;-84
2022/04/28 11:45:53;;;;;;;1.47;0.90;;;24.40;61.00;;;;;;4992916;28;20480;-81
2022/04/28 11:48:23;;;;;;;1.50;0.90;;;24.40;59.50;;;;;;5030601;28;20532;-81
2022/04/28 11:50:51;;;;;;;1.47;1.00;;;24.40;59.60;;;;;;5049407;28;20854;-83
2022/04/28 11:53:18;;;;;;;1.40;0.90;;;24.30;60.10;;;;;;5050248;28;20451;-80
2022/04/28 11:55:50;;;;;;;1.50;1.00;;;24.40;59.50;;;;;;5054532;28;20458;-83
2022/04/28 11:58:17;;;;;;;1.50;1.00;;;24.50;59.00;;;;;;5050752;28;20532;-80
2022/04/28 12:00:55;;;;;;;1.43;0.90;;;24.60;58.30;;;;;;5046456;28;20497;-80
2022/04/28 12:03:26;;;;;;;1.47;0.80;;;24.70;58.90;;;;;;5051617;28;20466;-81
2022/04/28 12:05:56;;;;;;;1.40;0.90;;;24.70;57.20;;;;;;5055431;28;20465;-80
2022/04/28 12:08:24;;;;;;;1.43;0.80;;;24.60;58.00;;;;;;5053649;28;20450;-80
2022/04/28 12:19:29;;;;;;;1.47;0.90;;;24.70;57.20;;;;;;5048916;28;21003;-83
2022/04/28 12:22:04;;;;;;;1.40;0.80;;;24.70;58.20;;;;;;5047202;28;20486;-81
2022/04/28 12:24:34;;;;;;;1.70;1.60;;;24.80;58.20;;;;;;5055107;28;20453;-80
2022/04/28 12:27:07;;;;;;;1.40;0.80;;;24.70;57.60;;;;;;5054669;28;20899;-82
2022/04/28 12:29:52;;;;;;;1.43;0.80;;;24.60;56.60;;;;;;5056126;28;20497;-83
2022/04/28 12:32:29;;;;;;;1.47;0.80;;;24.30;57.90;;;;;;5054569;28;20549;-79
2022/04/28 12:35:01;;;;;;;1.47;0.80;;;24.30;58.20;;;;;;5050832;28;20534;-80
2022/04/28 12:37:29;;;;;;;1.43;0.80;;;24.40;60.40;;;;;;5055706;28;20949;-82
2022/04/28 12:39:58;;;;;;;1.47;0.90;;;24.40;58.40;;;;;;5055874;28;20488;-81
2022/04/28 12:42:29;;;;;;;1.47;0.90;;;24.30;56.40;;;;;;5056863;28;20466;-84
2022/04/28 12:44:59;;;;;;;1.43;0.80;;;24.50;57.10;;;;;;5055611;28;20497;-81
2022/04/28 12:47:35;;;;;;;1.47;0.90;;;24.70;58.60;;;;;;5062241;28;20457;-79
2022/04/28 12:50:18;;;;;;;1.40;0.80;;;24.90;57.00;;;;;;5049098;28;20899;-81
2022/04/28 12:52:56;;;;;;;1.40;0.90;;;24.80;55.90;;;;;;5054287;28;20485;-82
2022/04/28 12:55:23;;;;;;;1.47;0.83;;;24.90;57.00;;;;;;5054332;28;20466;-81
2022/04/28 12:57:53;;;;;;;1.47;0.83;;;24.70;55.00;;;;;;5058031;28;20449;-82
2022/04/28 13:00:22;;;;;;;1.47;0.80;;;24.70;58.70;;;;;;5056059;28;20486;-80
2022/04/28 13:02:51;;;;;;;1.47;0.90;;;24.70;56.10;;;;;;5055351;28;20495;-84
2022/04/28 13:05:20;;;;;;;1.40;0.90;;;24.90;56.80;;;;;;5053983;28;20488;-81
2022/04/28 13:08:00;;;;;;;1.50;0.87;;;25.20;55.00;;;;;;5049389;28;20565;-82
2022/04/28 13:23:29;;;;;;;1.47;0.90;;;25.20;53.80;;;;;;4973950;28;20564;-82
2022/04/28 13:26:11;;;;;;;1.47;0.90;;;24.90;55.10;;;;;;5050508;28;20984;-85
2022/04/28 13:28:40;;;;;;;1.47;0.80;;;24.70;55.70;;;;;;5052131;28;21376;-84
2022/04/28 13:31:08;;;;;;;1.43;0.80;;;24.70;55.40;;;;;;5058415;28;20592;-81
2022/04/28 13:33:36;;;;;;;1.43;0.90;;;24.60;54.20;;;;;;5057618;28;20892;-79
2022/04/28 13:36:04;;;;;;;1.43;0.90;;;24.40;53.60;;;;;;5054710;28;20481;-81
2022/04/28 13:38:32;;;;;;;1.47;0.80;;;24.30;56.20;;;;;;5056288;28;20466;-80
2022/04/28 13:41:00;;;;;;;1.43;0.80;;;24.50;56.90;;;;;;5056937;28;20531;-82
2022/04/28 13:43:27;;;;;;;1.40;0.90;;;24.60;54.90;;;;;;5057809;28;20526;-81
2022/04/28 13:45:53;;;;;;;1.40;0.80;;;24.60;57.10;;;;;;5057203;28;20458;-79
2022/04/28 13:48:20;;;;;;;1.47;0.80;;;24.50;55.90;;;;;;5057325;28;20472;-84
2022/04/28 13:50:48;;;;;;;1.47;0.87;;;24.50;57.20;;;;;;5051123;28;20482;-83
2022/04/28 13:53:17;;;;;;;8.93;2.13;;;24.40;56.60;;;;;;5056703;28;20533;-80
2022/04/28 13:55:46;;;;;;;1.47;0.90;;;24.70;56.50;;;;;;5058303;28;20462;-81
2022/04/28 13:58:24;;;;;;;1.40;0.83;;;24.70;57.10;;;;;;5055447;28;20454;-84